createdAt,value
2018-03-24T00:01:03.300Z,13.37
2018-03-24T00:03:29.962Z,13.20
2018-03-24T00:05:56.602Z,11.20
2018-03-24T00:08:23.229Z,11.50
2018-03-24T00:10:49.739Z,10.67
2018-03-24T00:13:16.355Z,15.23
2018-03-24T00:15:42.902Z,10.60
2018-03-24T00:18:09.463Z,11.57
2018-03-24T00:20:36.371Z,11.37
2018-03-24T00:23:02.975Z,10.43
2018-03-24T00:25:29.556Z,10.17
2018-03-24T00:27:56.130Z,10.70
2018-03-24T00:30:22.704Z,9.40
2018-03-24T00:32:49.270Z,10.53
2018-03-24T00:35:15.846Z,9.80
2018-03-24T00:37:42.516Z,9.80
2018-03-24T00:40:09.074Z,11.63
2018-03-24T00:42:35.659Z,10.00
2018-03-24T00:45:02.230Z,12.17
2018-03-24T00:47:28.816Z,12.10
2018-03-24T00:49:55.381Z,10.77
2018-03-24T00:52:21.992Z,10.60
2018-03-24T00:54:48.560Z,12.47
2018-03-24T00:57:15.138Z,12.00
2018-03-24T00:59:41.742Z,13.90
2018-03-24T01:02:08.342Z,11.40
2018-03-24T01:04:34.934Z,10.57
2018-03-24T01:07:01.502Z,11.10
2018-03-24T01:09:28.070Z,11.83
2018-03-24T01:11:54.659Z,10.20
2018-03-24T01:14:21.231Z,11.77
2018-03-24T01:16:47.798Z,10.33
2018-03-24T01:19:14.379Z,13.87
2018-03-24T01:21:40.957Z,11.50
2018-03-24T01:24:07.591Z,12.83
2018-03-24T01:26:34.178Z,10.90
2018-03-24T01:29:00.755Z,11.03
2018-03-24T01:31:27.326Z,12.33
2018-03-24T01:33:53.906Z,12.77
2018-03-24T01:36:20.475Z,13.47
2018-03-24T01:38:47.072Z,14.90
2018-03-24T01:41:13.651Z,14.57
2018-03-24T01:43:40.235Z,13.90
2018-03-24T01:46:06.791Z,13.70
2018-03-24T01:48:33.415Z,14.20
2018-03-24T01:50:59.969Z,13.70
2018-03-24T01:53:32.344Z,18.23
2018-03-24T01:55:58.921Z,16.23
2018-03-24T01:58:25.490Z,16.03
2018-03-24T02:00:52.060Z,15.53
2018-03-24T02:03:18.654Z,18.43
2018-03-24T02:05:45.230Z,14.33
2018-03-24T02:08:11.805Z,15.00
2018-03-24T02:10:38.379Z,16.57
2018-03-24T02:13:04.951Z,15.00
2018-03-24T02:15:31.526Z,15.07
2018-03-24T02:17:58.106Z,16.40
2018-03-24T02:20:24.683Z,18.50
2018-03-24T02:22:51.260Z,15.33
2018-03-24T02:25:18.580Z,15.87
2018-03-24T02:27:45.146Z,13.90
2018-03-24T02:30:11.718Z,17.10
2018-03-24T02:32:38.311Z,15.67
2018-03-24T02:35:04.879Z,18.90
2018-03-24T02:37:31.491Z,15.93
2018-03-24T02:39:58.451Z,17.00
2018-03-24T02:42:25.021Z,16.30
2018-03-24T02:44:51.592Z,14.30
2018-03-24T02:47:18.167Z,16.33
2018-03-24T02:49:44.735Z,15.23
2018-03-24T02:52:11.313Z,15.77
2018-03-24T02:54:37.895Z,18.73
2018-03-24T02:57:04.511Z,18.10
2018-03-24T02:59:31.084Z,15.70
2018-03-24T03:01:57.677Z,17.77
2018-03-24T03:04:24.256Z,20.10
2018-03-24T03:06:50.821Z,16.77
2018-03-24T03:09:17.411Z,17.50
2018-03-24T03:11:43.991Z,19.30
2018-03-24T03:14:10.603Z,19.23
2018-03-24T03:16:37.186Z,16.80
2018-03-24T03:19:03.774Z,18.60
2018-03-24T03:21:36.163Z,19.60
2018-03-24T03:24:02.747Z,18.23
2018-03-24T03:26:29.319Z,19.17
2018-03-24T03:28:55.894Z,20.93
2018-03-24T03:31:22.484Z,19.90
2018-03-24T03:33:49.074Z,19.13
2018-03-24T03:36:15.650Z,19.27
2018-03-24T03:38:42.264Z,18.73
2018-03-24T03:41:08.831Z,19.40
2018-03-24T03:43:35.405Z,21.07
2018-03-24T03:46:01.987Z,19.13
2018-03-24T03:48:28.559Z,20.33
2018-03-24T03:50:55.127Z,19.40
2018-03-24T03:53:21.711Z,18.80
2018-03-24T03:55:48.302Z,18.00
2018-03-24T03:58:14.870Z,19.03
2018-03-24T04:00:41.450Z,18.60
2018-03-24T04:03:08.038Z,15.00
2018-03-24T04:05:34.615Z,19.30
2018-03-24T04:08:01.459Z,18.30
2018-03-24T04:10:28.026Z,19.77
2018-03-24T04:12:54.599Z,18.07
2018-03-24T04:15:21.202Z,19.50
2018-03-24T04:17:47.778Z,19.73
2018-03-24T04:20:14.450Z,20.23
2018-03-24T04:22:41.039Z,18.97
2018-03-24T04:25:07.623Z,18.57
2018-03-24T04:27:34.226Z,21.97
2018-03-24T04:30:00.783Z,20.27
2018-03-24T04:32:27.358Z,20.10
2018-03-24T04:34:53.936Z,24.43
2018-03-24T04:37:20.824Z,18.57
2018-03-24T04:39:47.395Z,24.33
2018-03-24T04:42:13.967Z,18.57
2018-03-24T04:44:40.547Z,22.70
2018-03-24T04:47:07.122Z,18.17
2018-03-24T04:49:33.691Z,20.10
2018-03-24T04:52:00.297Z,21.07
2018-03-24T04:54:26.894Z,22.47
2018-03-24T04:56:53.491Z,23.13
2018-03-24T04:59:20.074Z,19.53
2018-03-24T05:01:46.654Z,19.10
2018-03-24T05:04:13.227Z,24.07
2018-03-24T05:06:40.135Z,20.10
2018-03-24T05:09:06.711Z,19.00
2018-03-24T05:11:33.288Z,21.63
2018-03-24T05:13:59.880Z,19.83
2018-03-24T05:16:26.450Z,21.70
2018-03-24T05:18:53.042Z,21.20
2018-03-24T05:21:19.622Z,19.60
2018-03-24T05:23:46.186Z,19.47
2018-03-24T05:26:12.811Z,20.90
2018-03-24T05:28:39.338Z,22.03
2018-03-24T05:31:05.928Z,23.00
2018-03-24T05:33:32.487Z,18.80
2018-03-24T05:35:59.091Z,24.37
2018-03-24T05:38:25.660Z,19.47
2018-03-24T05:40:52.271Z,23.33
2018-03-24T05:43:18.853Z,21.37
2018-03-24T05:45:45.431Z,21.70
2018-03-24T05:48:11.995Z,21.53
2018-03-24T05:50:38.588Z,23.80
2018-03-24T05:53:05.150Z,20.07
2018-03-24T05:55:31.728Z,21.90
2018-03-24T05:57:58.306Z,27.07
2018-03-24T06:00:24.878Z,21.50
2018-03-24T06:02:51.461Z,23.77
2018-03-24T06:05:18.038Z,19.53
2018-03-24T06:07:44.642Z,20.10
2018-03-24T06:10:11.207Z,22.10
2018-03-24T06:12:37.795Z,23.47
2018-03-24T06:15:04.363Z,20.93
2018-03-24T06:17:30.935Z,20.90
2018-03-24T06:19:57.520Z,20.67
2018-03-24T06:22:24.099Z,21.23
2018-03-24T06:24:50.690Z,22.57
2018-03-24T06:27:17.653Z,23.63
2018-03-24T06:29:44.222Z,27.47
2018-03-24T06:32:10.790Z,23.17
2018-03-24T06:34:37.378Z,20.63
2018-03-24T06:37:21.614Z,24.10
2018-03-24T06:39:48.187Z,22.53
2018-03-24T06:42:14.774Z,24.40
2018-03-24T06:44:41.386Z,24.37
2018-03-24T06:47:07.951Z,24.00
2018-03-24T06:49:34.526Z,22.83
2018-03-24T06:52:01.103Z,22.00
2018-03-24T06:54:27.711Z,20.97
2018-03-24T06:56:54.283Z,24.90
2018-03-24T06:59:20.894Z,22.57
2018-03-24T07:01:47.487Z,25.90
2018-03-24T07:04:14.059Z,23.73
2018-03-24T07:06:40.636Z,22.70
2018-03-24T07:09:07.215Z,24.30
2018-03-24T07:11:33.805Z,24.10
2018-03-24T07:14:00.383Z,23.17
2018-03-24T07:16:27.010Z,23.67
2018-03-24T07:18:53.587Z,23.53
2018-03-24T07:21:20.164Z,25.80
2018-03-24T07:23:46.749Z,26.83
2018-03-24T07:26:13.319Z,23.77
2018-03-24T07:28:39.894Z,25.93
2018-03-24T07:31:06.499Z,23.40
2018-03-24T07:33:33.071Z,25.30
2018-03-24T07:35:59.645Z,25.20
2018-03-24T07:38:26.226Z,26.43
2018-03-24T07:40:52.802Z,27.37
2018-03-24T07:43:19.376Z,28.93
2018-03-24T07:45:45.971Z,25.30
2018-03-24T07:48:12.542Z,24.67
2018-03-24T07:50:39.137Z,23.97
2018-03-24T07:53:05.767Z,23.97
2018-03-24T07:55:32.335Z,24.83
2018-03-24T07:57:58.916Z,25.40
2018-03-24T08:00:25.834Z,22.93
2018-03-24T08:02:52.412Z,25.37
2018-03-24T08:05:18.983Z,23.13
2018-03-24T08:07:45.559Z,24.10
2018-03-24T08:10:12.138Z,26.13
2018-03-24T08:12:38.719Z,23.80
2018-03-24T08:15:05.310Z,23.60
2018-03-24T08:17:31.892Z,25.47
2018-03-24T08:19:58.466Z,24.67
2018-03-24T08:22:25.051Z,26.30
2018-03-24T08:24:51.618Z,25.87
2018-03-24T08:27:18.194Z,26.90
2018-03-24T08:29:45.155Z,24.27
2018-03-24T08:32:11.731Z,27.27
2018-03-24T08:34:38.331Z,22.00
2018-03-24T08:37:04.910Z,23.80
2018-03-24T08:39:31.490Z,23.90
2018-03-24T08:41:58.069Z,23.33
2018-03-24T08:44:24.659Z,24.03
2018-03-24T08:46:51.230Z,22.23
2018-03-24T08:49:17.815Z,25.30
2018-03-24T08:51:44.411Z,24.00
2018-03-24T08:54:10.983Z,22.30
2018-03-24T08:56:37.561Z,23.00
2018-03-24T08:59:04.138Z,23.40
2018-03-24T09:01:30.739Z,23.63
2018-03-24T09:03:57.311Z,22.33
2018-03-24T09:06:23.890Z,27.50
2018-03-24T09:08:50.481Z,22.23
2018-03-24T09:11:17.047Z,24.30
2018-03-24T09:13:43.627Z,24.90
2018-03-24T09:16:10.202Z,25.23
2018-03-24T09:18:36.862Z,22.63
2018-03-24T09:21:03.423Z,23.03
2018-03-24T09:23:29.994Z,19.73
2018-03-24T09:25:56.574Z,23.17
2018-03-24T09:28:23.174Z,19.37
2018-03-24T09:30:49.777Z,20.23
2018-03-24T09:33:16.331Z,16.90
2018-03-24T09:35:42.918Z,20.23
2018-03-24T09:38:09.571Z,23.40
2018-03-24T09:40:36.146Z,22.27
2018-03-24T09:43:02.731Z,19.60
2018-03-24T09:45:29.299Z,19.57
2018-03-24T09:47:55.870Z,20.03
2018-03-24T09:50:23.247Z,19.40
2018-03-24T09:52:49.924Z,14.77
2018-03-24T09:55:16.415Z,17.73
2018-03-24T09:57:43.226Z,16.33
2018-03-24T10:00:09.802Z,15.73
2018-03-24T10:02:36.377Z,15.73
2018-03-24T10:05:02.999Z,14.60
2018-03-24T10:07:29.534Z,19.70
2018-03-24T10:09:56.107Z,17.13
2018-03-24T10:12:22.956Z,18.50
2018-03-24T10:14:49.534Z,13.80
2018-03-24T10:17:16.106Z,13.80
2018-03-24T10:19:42.680Z,12.60
2018-03-24T10:22:24.918Z,9.67
2018-03-24T10:24:51.582Z,10.40
2018-03-24T10:27:18.145Z,10.73
2018-03-24T10:29:44.742Z,12.93
2018-03-24T10:32:11.319Z,10.30
2018-03-24T10:34:37.875Z,9.50
2018-03-24T10:37:04.439Z,7.90
2018-03-24T10:39:31.035Z,8.10
2018-03-24T10:41:57.602Z,11.27
2018-03-24T10:44:24.182Z,9.90
2018-03-24T10:46:50.774Z,11.70
2018-03-24T10:49:17.345Z,10.83
2018-03-24T10:51:43.910Z,11.77
2018-03-24T10:54:10.493Z,10.77
2018-03-24T10:56:37.073Z,9.70
2018-03-24T10:59:03.639Z,12.40
2018-03-24T11:01:30.225Z,12.00
2018-03-24T11:03:56.790Z,11.80
2018-03-24T11:06:23.374Z,12.07
2018-03-24T11:08:50.117Z,10.67
2018-03-24T11:11:16.742Z,13.00
2018-03-24T11:13:43.255Z,12.07
2018-03-24T11:16:09.833Z,13.27
2018-03-24T11:18:36.403Z,11.07
2018-03-24T11:21:02.971Z,11.33
2018-03-24T11:23:29.550Z,11.80
2018-03-24T11:25:56.119Z,11.80
2018-03-24T11:28:22.690Z,11.93
2018-03-24T11:30:49.291Z,12.00
2018-03-24T11:33:15.850Z,11.77
2018-03-24T11:35:42.419Z,11.07
2018-03-24T11:38:09.067Z,10.13
2018-03-24T11:40:35.636Z,19.60
2018-03-24T11:43:02.207Z,12.90
2018-03-24T11:45:28.784Z,11.10
2018-03-24T11:47:55.355Z,11.30
2018-03-24T11:50:21.925Z,10.33
2018-03-24T11:52:48.498Z,9.53
2018-03-24T11:55:15.069Z,11.33
2018-03-24T11:57:41.635Z,10.70
2018-03-24T12:00:15.122Z,11.63
2018-03-24T12:02:41.707Z,10.90
2018-03-24T12:05:08.276Z,11.40
2018-03-24T12:07:39.101Z,8.70
2018-03-24T12:10:05.692Z,8.03
2018-03-24T12:12:32.311Z,9.27
2018-03-24T12:14:59.147Z,8.27
2018-03-24T12:17:25.702Z,9.97
2018-03-24T12:19:52.274Z,9.10
2018-03-24T12:22:18.850Z,8.60
2018-03-24T12:24:45.556Z,7.10
2018-03-24T12:27:12.138Z,8.73
2018-03-24T12:29:38.739Z,8.10
2018-03-24T12:32:05.327Z,11.80
2018-03-24T12:34:31.890Z,8.83
2018-03-24T12:36:58.462Z,7.30
2018-03-24T12:39:25.033Z,8.77
2018-03-24T12:41:51.598Z,7.63
2018-03-24T12:44:18.198Z,7.60
2018-03-24T12:46:44.767Z,9.83
2018-03-24T12:49:11.325Z,9.50
2018-03-24T12:51:37.917Z,7.43
2018-03-24T12:54:04.491Z,10.00
2018-03-24T12:56:31.054Z,7.53
2018-03-24T12:58:57.975Z,12.60
2018-03-24T13:01:24.546Z,10.53
2018-03-24T13:03:51.107Z,9.37
2018-03-24T13:06:17.682Z,8.17
2018-03-24T13:08:44.266Z,8.83
2018-03-24T13:11:10.831Z,9.17
2018-03-24T13:13:37.416Z,8.20
2018-03-24T13:16:03.984Z,10.87
2018-03-24T13:18:30.554Z,11.30
2018-03-24T13:20:57.180Z,20.17
2018-03-24T13:23:23.750Z,10.77
2018-03-24T13:25:50.322Z,10.30
2018-03-24T13:28:17.195Z,7.93
2018-03-24T13:30:43.754Z,8.73
2018-03-24T13:33:10.325Z,8.80
2018-03-24T13:35:36.912Z,8.23
2018-03-24T13:38:03.676Z,9.83
2018-03-24T13:40:30.235Z,9.47
2018-03-24T13:42:56.814Z,7.73
2018-03-24T13:45:23.379Z,8.40
2018-03-24T13:47:49.939Z,8.77
2018-03-24T13:50:16.510Z,7.90
2018-03-24T13:52:43.081Z,8.90
2018-03-24T13:55:09.662Z,9.60
2018-03-24T13:57:36.268Z,8.90
2018-03-24T14:00:02.812Z,12.77
2018-03-24T14:02:29.385Z,9.07
2018-03-24T14:04:55.952Z,8.53
2018-03-24T14:07:22.560Z,10.90
2018-03-24T14:09:49.131Z,11.67
2018-03-24T14:12:15.712Z,10.37
2018-03-24T14:14:42.414Z,9.67
2018-03-24T14:17:08.986Z,10.73
2018-03-24T14:19:35.564Z,9.27
2018-03-24T14:22:02.127Z,9.37
2018-03-24T14:24:28.691Z,9.80
2018-03-24T14:26:55.279Z,14.60
2018-03-24T14:29:21.844Z,10.87
2018-03-24T14:31:48.452Z,9.90
2018-03-24T14:34:15.000Z,9.63
2018-03-24T14:36:41.575Z,11.13
2018-03-24T14:39:08.134Z,8.33
2018-03-24T14:41:34.726Z,9.87
2018-03-24T14:44:01.294Z,9.63
2018-03-24T14:46:27.862Z,9.73
2018-03-24T14:48:54.521Z,9.40
2018-03-24T14:51:21.073Z,9.93
2018-03-24T14:53:47.638Z,8.70
2018-03-24T14:56:14.227Z,9.10
2018-03-24T14:58:40.777Z,10.13
2018-03-24T15:01:07.346Z,8.77
2018-03-24T15:03:33.987Z,10.37
2018-03-24T15:06:00.522Z,8.40
2018-03-24T15:08:27.085Z,9.13
2018-03-24T15:10:53.658Z,9.63
2018-03-24T15:13:20.239Z,8.53
2018-03-24T15:15:46.799Z,9.63
2018-03-24T15:18:13.382Z,10.77
2018-03-24T15:20:39.947Z,7.73
2018-03-24T15:23:06.510Z,10.80
2018-03-24T15:25:33.442Z,11.80
2018-03-24T15:28:00.007Z,7.90
2018-03-24T15:30:32.374Z,8.90
2018-03-24T15:33:04.644Z,12.23
2018-03-24T15:35:32.050Z,9.80
2018-03-24T15:37:58.626Z,10.10
2018-03-24T15:40:25.194Z,8.63
2018-03-24T15:42:51.796Z,8.13
2018-03-24T15:45:18.351Z,8.37
2018-03-24T15:47:45.766Z,10.13
2018-03-24T15:50:12.646Z,11.03
2018-03-24T15:52:42.130Z,9.70
2018-03-24T15:55:08.723Z,11.17
2018-03-24T15:57:35.299Z,10.37
2018-03-24T16:00:02.719Z,9.53
2018-03-24T16:02:29.387Z,10.63
2018-03-24T16:04:55.981Z,10.83
2018-03-24T16:07:22.718Z,11.63
2018-03-24T16:09:49.278Z,12.80
2018-03-24T16:12:15.930Z,9.27
2018-03-24T16:14:42.515Z,11.10
2018-03-24T16:17:09.097Z,9.60
2018-03-24T16:19:35.690Z,10.70
2018-03-24T16:22:02.272Z,9.73
2018-03-24T16:24:29.777Z,8.90
2018-03-24T16:26:57.071Z,8.93
2018-03-24T16:29:23.630Z,8.57
2018-03-24T16:31:50.221Z,8.20
2018-03-24T16:34:17.067Z,8.33
2018-03-24T16:36:43.691Z,10.33
2018-03-24T16:39:10.263Z,7.83
2018-03-24T16:41:36.859Z,9.90
2018-03-24T16:44:03.447Z,8.90
2018-03-24T16:46:29.996Z,10.17
2018-03-24T16:48:56.570Z,9.60
2018-03-24T16:51:23.139Z,9.80
2018-03-24T16:53:49.709Z,11.47
2018-03-24T16:56:16.290Z,9.73
2018-03-24T16:58:42.858Z,7.90
2018-03-24T17:01:10.779Z,10.30
2018-03-24T17:03:37.341Z,11.60
2018-03-24T17:06:03.911Z,7.70
2018-03-24T17:08:30.490Z,11.73
2018-03-24T17:10:57.074Z,10.90
2018-03-24T17:13:23.642Z,8.10
2018-03-24T17:15:50.216Z,10.67
2018-03-24T17:18:17.114Z,10.43
2018-03-24T17:20:43.687Z,10.23
2018-03-24T17:23:11.231Z,8.50
2018-03-24T17:25:37.811Z,10.20
2018-03-24T17:28:05.630Z,13.13
2018-03-24T17:30:32.199Z,9.93
2018-03-24T17:32:59.693Z,8.33
2018-03-24T17:35:27.290Z,11.47
2018-03-24T17:37:54.751Z,9.43
2018-03-24T17:40:21.655Z,9.70
2018-03-24T17:42:48.339Z,11.47
2018-03-24T17:45:15.707Z,11.33
2018-03-24T17:47:42.355Z,9.97
2018-03-24T17:50:08.952Z,13.70
2018-03-24T17:52:35.651Z,9.73
2018-03-24T17:55:02.298Z,10.03
2018-03-24T17:57:28.894Z,9.13
2018-03-24T17:59:56.224Z,10.10
2018-03-24T18:02:22.796Z,9.17
2018-03-24T18:04:49.368Z,12.90
2018-03-24T18:07:15.941Z,10.63
2018-03-24T18:09:42.584Z,10.90
2018-03-24T18:12:09.131Z,10.87
2018-03-24T18:14:35.698Z,11.10
2018-03-24T18:17:02.279Z,11.73
2018-03-24T18:19:28.859Z,12.40
2018-03-24T18:21:55.434Z,10.80
2018-03-24T18:24:22.030Z,11.53
2018-03-24T18:26:49.402Z,10.10
2018-03-24T18:29:15.971Z,12.37
2018-03-24T18:31:42.590Z,10.40
2018-03-24T18:34:09.172Z,10.50
2018-03-24T18:36:35.739Z,11.10
2018-03-24T18:39:02.789Z,11.97
2018-03-24T18:41:29.344Z,11.23
2018-03-24T18:43:55.906Z,9.47
2018-03-24T18:46:22.499Z,8.73
2018-03-24T18:48:49.064Z,7.97
2018-03-24T18:51:15.630Z,9.27
2018-03-24T18:53:42.230Z,10.40
2018-03-24T18:56:08.795Z,9.70
2018-03-24T18:58:35.365Z,8.63
2018-03-24T19:01:02.253Z,8.67
2018-03-24T19:03:28.814Z,10.07
2018-03-24T19:05:55.382Z,9.50
2018-03-24T19:08:22.318Z,10.30
2018-03-24T19:10:48.856Z,9.87
2018-03-24T19:13:15.426Z,8.80
2018-03-24T19:15:42.024Z,10.77
2018-03-24T19:18:08.586Z,9.40
2018-03-24T19:20:35.162Z,11.30
2018-03-24T19:23:01.730Z,8.90
2018-03-24T19:25:28.313Z,10.60
2018-03-24T19:27:54.887Z,8.43
2018-03-24T19:30:21.487Z,11.80
2018-03-24T19:32:48.049Z,12.50
2018-03-24T19:35:14.731Z,12.63
2018-03-24T19:37:41.286Z,14.70
2018-03-24T19:40:07.854Z,16.03
2018-03-24T19:42:34.435Z,12.90
2018-03-24T19:45:01.130Z,11.70
2018-03-24T19:47:27.717Z,17.47
2018-03-24T19:49:54.286Z,13.57
2018-03-24T19:52:20.886Z,11.90
2018-03-24T19:54:47.460Z,12.10
2018-03-24T19:57:14.031Z,13.23
2018-03-24T19:59:40.626Z,14.90
2018-03-24T20:02:07.243Z,12.83
2018-03-24T20:04:33.837Z,16.27
2018-03-24T20:07:00.435Z,13.90
2018-03-24T20:09:26.998Z,16.63
2018-03-24T20:11:53.565Z,14.80
2018-03-24T20:14:20.166Z,14.60
2018-03-24T20:16:46.726Z,15.57
2018-03-24T20:19:13.326Z,15.33
2018-03-24T20:21:39.899Z,12.20
2018-03-24T20:24:06.455Z,11.93
2018-03-24T20:26:33.022Z,10.30
2018-03-24T20:28:59.875Z,10.77
2018-03-24T20:31:26.458Z,13.03
2018-03-24T20:33:53.040Z,11.37
2018-03-24T20:36:19.659Z,11.13
2018-03-24T20:38:46.222Z,9.53
2018-03-24T20:41:12.799Z,11.90
2018-03-24T20:43:39.370Z,10.50
2018-03-24T20:46:05.939Z,11.13
2018-03-24T20:48:32.508Z,9.97
2018-03-24T20:50:59.075Z,10.63
2018-03-24T20:53:25.913Z,11.00
2018-03-24T20:55:52.482Z,11.10
2018-03-24T20:58:19.055Z,11.27
2018-03-24T21:00:45.630Z,11.70
2018-03-24T21:03:12.198Z,11.37
2018-03-24T21:05:38.770Z,12.50
2018-03-24T21:08:05.348Z,13.43
2018-03-24T21:10:31.911Z,12.90
2018-03-24T21:12:58.797Z,14.00
2018-03-24T21:15:25.350Z,11.50
2018-03-24T21:17:51.935Z,11.23
2018-03-24T21:20:18.499Z,13.03
2018-03-24T21:22:45.075Z,12.67
2018-03-24T21:25:11.675Z,10.83
2018-03-24T21:27:38.229Z,14.40
2018-03-24T21:30:04.839Z,12.53
2018-03-24T21:32:31.405Z,15.07
2018-03-24T21:34:57.975Z,13.03
2018-03-24T21:37:24.584Z,12.20
2018-03-24T21:39:51.250Z,10.87
2018-03-24T21:42:17.832Z,11.03
2018-03-24T21:44:44.398Z,12.73
2018-03-24T21:47:10.966Z,13.27
2018-03-24T21:49:37.539Z,11.13
2018-03-24T21:52:04.107Z,12.97
2018-03-24T21:54:30.702Z,11.33
2018-03-24T21:56:57.276Z,13.67
2018-03-24T21:59:23.839Z,12.43
2018-03-24T22:01:50.418Z,12.60
2018-03-24T22:04:16.982Z,12.37
2018-03-24T22:06:43.550Z,12.53
2018-03-24T22:09:10.127Z,12.23
2018-03-24T22:11:36.730Z,12.40
2018-03-24T22:14:03.294Z,12.83
2018-03-24T22:16:29.874Z,16.30
2018-03-24T22:18:56.439Z,12.70
2018-03-24T22:21:23.042Z,11.77
2018-03-24T22:23:49.874Z,13.10
2018-03-24T22:26:16.440Z,10.77
2018-03-24T22:28:43.030Z,11.50
2018-03-24T22:31:09.603Z,9.90
2018-03-24T22:33:36.172Z,11.97
2018-03-24T22:36:02.774Z,12.07
2018-03-24T22:38:29.455Z,11.03
2018-03-24T22:40:56.031Z,13.43
2018-03-24T22:43:22.602Z,11.90
2018-03-24T22:45:49.182Z,12.17
2018-03-24T22:48:15.750Z,12.03
2018-03-24T22:50:42.355Z,10.17
2018-03-24T22:53:08.926Z,13.10
2018-03-24T22:55:35.499Z,12.80
2018-03-24T22:58:02.071Z,13.70
2018-03-24T23:00:28.654Z,14.80
2018-03-24T23:02:55.222Z,17.80
2018-03-24T23:05:21.794Z,13.60
2018-03-24T23:07:48.364Z,14.70
2018-03-24T23:10:14.934Z,14.47
2018-03-24T23:12:41.502Z,13.77
2018-03-24T23:15:08.080Z,16.43
2018-03-24T23:17:34.651Z,15.37
2018-03-24T23:20:01.295Z,15.70
2018-03-24T23:22:27.863Z,15.47
2018-03-24T23:24:54.440Z,14.57
2018-03-24T23:27:21.010Z,14.70
2018-03-24T23:29:47.583Z,18.83
2018-03-24T23:32:14.162Z,16.60
2018-03-24T23:34:40.737Z,18.00
2018-03-24T23:37:07.314Z,15.37
2018-03-24T23:39:33.926Z,17.63
2018-03-24T23:42:00.506Z,15.87
2018-03-24T23:44:27.078Z,16.00
2018-03-24T23:46:53.654Z,18.33
2018-03-24T23:49:20.232Z,16.57
2018-03-24T23:51:46.795Z,19.47
2018-03-24T23:54:13.377Z,16.73
2018-03-24T23:56:39.952Z,16.27
2018-03-24T23:59:06.519Z,17.23
